Time;durP1;ratioP1;P1;durP2;ratioP2;P2;SDS_P1;SDS_P2;PMS_P1;PMS_P2;Temp;Humidity;BMP_temperature;BMP_pressure;BME280_temperature;BME280_humidity;BME280_pressure;Samples;Min_cycle;Max_cycle;Signal;HPM_P1;HPM_P2
2022/02/15 00:00:16;;;;;;;;;;;;;;;6.69;77.67;100265.63;2114420;28;45275;-68
2022/02/15 00:01:17;;;;;;;;;;;;;;;6.69;77.08;100260.31;2114771;28;42622;-68
2022/02/15 00:02:21;;;;;;;;;;;;;;;6.70;77.76;100255.84;2116071;28;19935;-68
2022/02/15 00:03:22;;;;;;;;;;;;;;;6.70;77.74;100258.50;2114450;28;45579;-67
2022/02/15 00:04:24;;;;;;;;;;;;;;;6.72;77.23;100261.16;2113634;28;44391;-67
2022/02/15 00:05:26;;;;;;;;;;;;;;;6.69;77.80;100254.06;2114218;28;45766;-67
2022/02/15 00:06:28;;;;;;;;;;;;;;;6.68;77.70;100271.84;2114336;28;45043;-67
2022/02/15 00:07:29;;;;;;;;;;;;;;;6.69;77.61;100257.63;2114644;28;43187;-65
2022/02/15 00:08:31;;;;;;;;;;;;;;;6.72;77.54;100262.00;2114357;28;44427;-66
2022/02/15 00:09:32;;;;;;;;;;;;;;;6.71;77.21;100273.53;2113742;28;43835;-65
2022/02/15 00:10:34;;;;;;;;;;;;;;;6.72;77.64;100266.47;2114237;28;45135;-65
2022/02/15 00:11:38;;;;;;;;;;;;;;;6.73;77.60;100265.53;2115482;28;19955;-65
2022/02/15 00:12:40;;;;;;;;;;;;;;;6.72;77.40;100280.63;2114370;28;40867;-67
2022/02/15 00:13:42;;;;;;;;;;;;;;;6.72;77.82;100269.13;2114157;28;44174;-67
2022/02/15 00:14:44;;;;;;;;;;;;;;;6.69;77.80;100268.28;2113776;28;46012;-67
2022/02/15 00:15:46;;;;;;;;;;;;;;;6.69;77.74;100273.59;2114289;28;43004;-67
2022/02/15 00:16:50;;;;;;;;;;;;;;;6.69;78.03;100267.38;2115303;28;19983;-67
2022/02/15 00:17:54;;;;;;;;;;;;;;;6.71;77.44;100267.34;2114688;28;43421;-67
2022/02/15 00:18:56;;;;;;;;;;;;;;;6.72;78.02;100280.63;2115399;28;20920;-67
2022/02/15 00:19:57;;;;;;;;;;;;;;;6.71;77.74;100280.66;2113785;28;45739;-67
2022/02/15 00:21:00;;;;;;;;;;;;;;;6.70;77.74;100279.78;2114519;28;39357;-67
2022/02/15 00:22:02;;;;;;;;;;;;;;;6.69;78.07;100288.66;2114329;28;45277;-66
2022/02/15 00:23:04;;;;;;;;;;;;;;;6.69;78.31;100293.97;2114357;28;43181;-68
2022/02/15 00:24:06;;;;;;;;;;;;;;;6.70;78.05;100295.75;2114800;28;45399;-67
2022/02/15 00:25:09;;;;;;;;;;;;;;;6.72;78.02;100288.63;2113688;28;42090;-68
2022/02/15 00:26:11;;;;;;;;;;;;;;;6.70;78.22;100287.78;2113980;28;41850;-68
2022/02/15 00:27:13;;;;;;;;;;;;;;;6.68;78.17;100287.78;2114340;28;43180;-68
2022/02/15 00:28:14;;;;;;;;;;;;;;;6.68;78.62;100285.13;2114808;28;40592;-67
2022/02/15 00:29:16;;;;;;;;;;;;;;;6.67;78.50;100285.16;2114352;28;43940;-68
2022/02/15 00:30:20;;;;;;;;;;;;;;;6.65;78.54;100281.66;2114642;28;19921;-67
2022/02/15 00:31:21;;;;;;;;;;;;;;;6.64;78.37;100290.53;2114079;28;42775;-68
2022/02/15 00:32:27;;;;;;;;;;;;;;;6.62;78.79;100290.56;2115425;28;19928;-68
2022/02/15 00:33:28;;;;;;;;;;;;;;;6.62;78.50;100293.22;2114149;28;45890;-65
2022/02/15 00:34:34;;;;;;;;;;;;;;;6.61;79.35;100295.91;2104439;28;43544;-65
2022/02/15 00:35:36;;;;;;;;;;;;;;;6.60;79.04;100299.47;2097126;28;47195;-66
2022/02/15 00:36:40;;;;;;;;;;;;;;;6.59;78.85;100293.28;2105793;28;35013;-65
2022/02/15 00:37:43;;;;;;;;;;;;;;;6.58;79.09;100296.81;2104992;28;44381;-66
2022/02/15 00:38:44;;;;;;;;;;;;;;;6.57;78.72;100305.72;2105654;28;44732;-66
2022/02/15 00:39:48;;;;;;;;;;;;;;;6.57;79.25;100304.81;2104434;28;45641;-66
2022/02/15 00:40:50;;;;;;;;;;;;;;;6.55;79.35;100303.97;2104754;28;46667;-66
2022/02/15 00:41:51;;;;;;;;;;;;;;;6.54;79.11;100296.91;2114888;28;23855;-65
2022/02/15 00:42:56;;;;;;;;;;;;;;;6.52;79.13;100298.75;2114327;28;19928;-65
2022/02/15 00:44:00;;;;;;;;;;;;;;;6.50;79.25;100302.28;2113095;27;44934;-68
2022/02/15 00:45:07;;;;;;;;;;;;;;;6.50;79.62;100299.63;2114132;28;20057;-66
2022/02/15 00:46:09;;;;;;;;;;;;;;;6.49;79.81;100310.28;2112965;28;46408;-66
2022/02/15 00:47:10;;;;;;;;;;;;;;;6.48;80.09;100305.88;2115097;28;34647;-65
2022/02/15 00:48:12;;;;;;;;;;;;;;;6.48;79.58;100316.53;2114358;28;43843;-66
2022/02/15 00:49:13;;;;;;;;;;;;;;;6.49;79.69;100323.56;2114220;28;44245;-65
2022/02/15 00:50:16;;;;;;;;;;;;;;;6.47;79.63;100320.94;2114270;28;20066;-66
2022/02/15 00:51:18;;;;;;;;;;;;;;;6.46;79.37;100321.88;2114398;28;19931;-65
2022/02/15 00:52:20;;;;;;;;;;;;;;;6.46;79.21;100313.88;2114208;28;20786;-66
2022/02/15 00:53:21;;;;;;;;;;;;;;;6.47;79.48;100322.72;2096738;28;44029;-65
2022/02/15 00:54:23;;;;;;;;;;;;;;;6.45;79.64;100325.41;2096785;28;45038;-68
2022/02/15 00:55:25;;;;;;;;;;;;;;;6.45;79.89;100327.19;2113429;28;41941;-67
2022/02/15 00:56:26;;;;;;;;;;;;;;;6.42;80.17;100325.44;2105743;28;19925;-65
2022/02/15 00:57:28;;;;;;;;;;;;;;;6.43;79.67;100334.31;2105104;28;48489;-68
2022/02/15 00:58:32;;;;;;;;;;;;;;;6.40;80.50;100329.91;2103710;28;45341;-68
2022/02/15 00:59:33;;;;;;;;;;;;;;;6.39;79.75;100333.50;2114266;28;45439;-66
2022/02/15 01:00:35;;;;;;;;;;;;;;;6.39;80.40;100328.19;2105350;28;36007;-65
2022/02/15 01:01:37;;;;;;;;;;;;;;;6.39;80.42;100329.94;2105040;28;45663;-68
2022/02/15 01:02:39;;;;;;;;;;;;;;;6.39;80.54;100346.78;2114159;28;45871;-68
2022/02/15 01:03:40;;;;;;;;;;;;;;;6.38;80.74;100341.50;2113622;28;44432;-65
2022/02/15 01:04:42;;;;;;;;;;;;;;;6.37;80.66;100340.63;2113204;28;20853;-65
2022/02/15 01:05:44;;;;;;;;;;;;;;;6.34;80.43;100335.34;2113556;28;43411;-65
2022/02/15 01:06:45;;;;;;;;;;;;;;;6.34;80.30;100337.13;2104360;28;45230;-67
2022/02/15 01:07:48;;;;;;;;;;;;;;;6.31;81.11;100346.03;2097715;28;19925;-65
2022/02/15 01:08:49;;;;;;;;;;;;;;;6.30;80.77;100347.81;2105065;28;45682;-65
2022/02/15 01:09:51;;;;;;;;;;;;;;;6.30;80.92;100341.63;2112676;28;40791;-66
2022/02/15 01:10:52;;;;;;;;;;;;;;;6.30;80.89;100344.28;2113938;28;44533;-65
2022/02/15 01:11:54;;;;;;;;;;;;;;;6.29;80.42;100355.81;2113879;28;43480;-66
2022/02/15 01:12:55;;;;;;;;;;;;;;;6.28;80.94;100352.28;2104185;28;46514;-66
2022/02/15 01:13:57;;;;;;;;;;;;;;;6.27;80.72;100354.94;2105374;28;41761;-66
2022/02/15 01:14:59;;;;;;;;;;;;;;;6.26;81.52;100353.19;2104595;28;40833;-65
2022/02/15 01:16:01;;;;;;;;;;;;;;;6.26;81.47;100359.41;2104546;28;28009;-68
2022/02/15 01:17:03;;;;;;;;;;;;;;;6.24;81.39;100350.53;2114329;28;19916;-65
2022/02/15 01:18:04;;;;;;;;;;;;;;;6.24;80.77;100365.63;2113442;28;46756;-65
2022/02/15 01:19:06;;;;;;;;;;;;;;;6.21;81.92;100360.34;2114873;28;20074;-66
2022/02/15 01:20:08;;;;;;;;;;;;;;;6.22;80.97;100362.09;2114092;28;20740;-66
2022/02/15 01:21:09;;;;;;;;;;;;;;;6.19;81.38;100367.47;2104282;28;45050;-67
2022/02/15 01:22:11;;;;;;;;;;;;;;;6.18;81.73;100363.94;2104933;28;45269;-68
2022/02/15 01:23:13;;;;;;;;;;;;;;;6.18;81.06;100360.41;2114858;28;20419;-68
2022/02/15 01:24:15;;;;;;;;;;;;;;;6.17;81.50;100367.47;2115297;28;20017;-68
2022/02/15 01:25:17;;;;;;;;;;;;;;;6.15;80.96;100361.31;2105605;28;20860;-67
2022/02/15 01:26:18;;;;;;;;;;;;;;;6.16;81.57;100363.09;2104900;28;25454;-68
2022/02/15 01:27:20;;;;;;;;;;;;;;;6.14;80.95;100364.88;2113923;28;20100;-66
2022/02/15 01:28:23;;;;;;;;;;;;;;;6.13;81.04;100356.94;2114302;28;19991;-65
2022/02/15 01:29:25;;;;;;;;;;;;;;;6.13;80.81;100364.91;2113758;28;20061;-67
2022/02/15 01:30:27;;;;;;;;;;;;;;;6.10;80.82;100358.72;2114534;28;19935;-68
2022/02/15 01:31:28;;;;;;;;;;;;;;;6.10;81.61;100366.72;2112220;28;31882;-68
2022/02/15 01:32:30;;;;;;;;;;;;;;;6.08;81.30;100359.63;2113447;28;26314;-67
2022/02/15 01:33:36;;;;;;;;;;;;;;;6.07;81.29;100366.75;2113844;28;20681;-67
2022/02/15 01:34:38;;;;;;;;;;;;;;;6.06;81.49;100362.31;2105965;28;19931;-67
2022/02/15 01:35:41;;;;;;;;;;;;;;;6.04;82.00;100363.25;2105141;28;20021;-67
2022/02/15 01:36:45;;;;;;;;;;;;;;;6.04;82.20;100365.91;2105305;28;19984;-67
2022/02/15 01:37:52;;;;;;;;;;;;;;;6.00;81.78;100361.53;2097233;28;19931;-67
2022/02/15 01:38:56;;;;;;;;;;;;;;;5.99;81.48;100368.59;2089294;28;19925;-67
2022/02/15 01:39:57;;;;;;;;;;;;;;;5.98;81.95;100366.00;2088946;28;19991;-65
2022/02/15 01:41:01;;;;;;;;;;;;;;;5.95;81.72;100372.19;2099623;28;20003;-65
2022/02/15 01:42:06;;;;;;;;;;;;;;;5.92;82.84;100373.13;2104659;28;19963;-68
2022/02/15 01:43:11;;;;;;;;;;;;;;;5.92;82.47;100369.56;2097238;28;19921;-67
2022/02/15 01:44:17;;;;;;;;;;;;;;;5.89;82.46;100366.97;2097364;28;19995;-67
2022/02/15 01:45:19;;;;;;;;;;;;;;;5.89;82.51;100367.84;2105787;28;20141;-67
2022/02/15 01:46:21;;;;;;;;;;;;;;;5.88;83.02;100370.50;2109495;28;44442;-67
2022/02/15 01:47:25;;;;;;;;;;;;;;;5.88;82.97;100370.50;2105586;28;19971;-67
2022/02/15 01:48:26;;;;;;;;;;;;;;;5.88;82.43;100375.81;2097076;28;20682;-67
2022/02/15 01:49:29;;;;;;;;;;;;;;;5.89;83.12;100374.94;2104620;28;43429;-67
2022/02/15 01:50:31;;;;;;;;;;;;;;;5.89;83.15;100374.94;2114188;28;20808;-67
2022/02/15 01:51:33;;;;;;;;;;;;;;;5.88;83.09;100375.81;2114124;28;19951;-67
2022/02/15 01:52:34;;;;;;;;;;;;;;;5.88;82.82;100374.03;2113848;28;34315;-67
2022/02/15 01:53:36;;;;;;;;;;;;;;;5.87;83.89;100371.41;2114869;28;20717;-67
2022/02/15 01:54:37;;;;;;;;;;;;;;;5.85;83.50;100374.09;2113455;28;43864;-67
2022/02/15 01:55:40;;;;;;;;;;;;;;;5.83;83.42;100369.69;2105222;28;24549;-67
2022/02/15 01:56:42;;;;;;;;;;;;;;;5.82;84.12;100375.91;2096467;28;19987;-67
2022/02/15 01:57:44;;;;;;;;;;;;;;;5.80;83.32;100375.06;2105562;28;22365;-67
2022/02/15 01:58:51;;;;;;;;;;;;;;;5.77;84.19;100378.59;2105580;28;19986;-67
2022/02/15 01:59:55;;;;;;;;;;;;;;;5.74;83.50;100376.88;2096977;28;20721;-67
2022/02/15 02:01:03;;;;;;;;;;;;;;;5.74;83.97;100379.53;2098196;28;19982;-67
2022/02/15 02:02:14;;;;;;;;;;;;;;;5.75;83.15;100372.44;2098197;28;19925;-68
2022/02/15 02:03:18;;;;;;;;;;;;;;;5.77;83.32;100378.59;2090429;28;19936;-67
2022/02/15 02:05:48;;;;;;;;;;;;;;;5.74;84.46;100379.53;2113935;28;20682;-67
2022/02/15 02:07:00;;;;;;;;;;;;;;;5.77;83.53;100377.75;2113138;28;20017;-67
2022/02/15 02:08:07;;;;;;;;;;;;;;;5.76;84.14;100378.63;2114249;28;19928;-67
2022/02/15 02:09:14;;;;;;;;;;;;;;;5.75;83.87;100383.06;2105362;28;19928;-66
2022/02/15 02:10:16;;;;;;;;;;;;;;;5.76;84.18;100381.28;2096955;28;20053;-65
2022/02/15 02:11:17;;;;;;;;;;;;;;;5.77;84.06;100391.88;2104910;28;25486;-65
2022/02/15 02:12:22;;;;;;;;;;;;;;;5.74;83.60;100382.19;2113358;27;20408;-65
2022/02/15 02:13:30;;;;;;;;;;;;;;;5.77;83.63;100388.38;2113883;28;19924;-65
2022/02/15 02:14:33;;;;;;;;;;;;;;;5.76;83.34;100395.47;2114013;28;19931;-65
2022/02/15 02:15:37;;;;;;;;;;;;;;;5.77;84.42;100386.56;2113624;28;19924;-65
2022/02/15 02:16:53;;;;;;;;;;;;;;;5.77;83.51;100399.84;2113387;27;20062;-65
2022/02/15 02:18:02;;;;;;;;;;;;;;;5.78;83.71;100398.06;2105391;28;19975;-65
2022/02/15 02:19:04;;;;;;;;;;;;;;;5.78;83.32;100387.44;2105534;28;20805;-64
2022/02/15 02:20:11;;;;;;;;;;;;;;;5.77;84.01;100397.19;2114012;28;19932;-65
2022/02/15 02:21:12;;;;;;;;;;;;;;;5.77;83.97;100399.84;2105306;28;20052;-65
2022/02/15 02:22:16;;;;;;;;;;;;;;;5.79;83.48;100405.16;2096608;28;20765;-66
2022/02/15 02:23:20;;;;;;;;;;;;;;;5.78;83.18;100398.06;2096950;28;19929;-64
2022/02/15 02:24:25;;;;;;;;;;;;;;;5.78;83.27;100403.38;2098053;28;19920;-65
2022/02/15 02:25:30;;;;;;;;;;;;;;;5.79;83.99;100410.47;2104203;28;20191;-68
2022/02/15 02:26:35;;;;;;;;;;;;;;;5.78;84.07;100401.63;2105641;28;19932;-65
2022/02/15 02:27:39;;;;;;;;;;;;;;;5.79;84.41;100399.84;2097292;28;20924;-65
2022/02/15 02:28:41;;;;;;;;;;;;;;;5.80;83.37;100412.25;2097284;28;20004;-65
2022/02/15 02:29:44;;;;;;;;;;;;;;;5.78;83.53;100403.38;2105325;28;19935;-65
2022/02/15 02:30:46;;;;;;;;;;;;;;;5.80;83.94;100412.25;2104448;28;19924;-65
2022/02/15 02:31:47;;;;;;;;;;;;;;;5.79;83.54;100416.66;2105104;28;20055;-65
2022/02/15 02:32:53;;;;;;;;;;;;;;;5.78;83.89;100414.00;2106081;28;20073;-64
2022/02/15 02:33:59;;;;;;;;;;;;;;;5.79;83.41;100405.16;2113333;28;19973;-65
2022/02/15 02:35:09;;;;;;;;;;;;;;;5.79;83.35;100413.13;2114102;28;19924;-65
2022/02/15 02:36:15;;;;;;;;;;;;;;;5.80;83.63;100417.56;2112055;28;44328;-65
2022/02/15 02:37:17;;;;;;;;;;;;;;;5.79;84.47;100418.44;2113633;28;45431;-65
2022/02/15 02:38:19;;;;;;;;;;;;;;;5.79;84.09;100421.09;2112950;28;42494;-66
2022/02/15 02:39:20;;;;;;;;;;;;;;;5.81;84.17;100424.59;2113979;28;34057;-65
2022/02/15 02:40:23;;;;;;;;;;;;;;;5.79;83.91;100423.75;2105036;28;19924;-65
2022/02/15 02:41:25;;;;;;;;;;;;;;;5.79;84.34;100429.06;2105231;28;20151;-65
2022/02/15 02:42:29;;;;;;;;;;;;;;;5.79;84.87;100426.41;2113555;28;19928;-65
2022/02/15 02:43:31;;;;;;;;;;;;;;;5.78;84.13;100428.19;2113709;28;19924;-65
2022/02/15 02:44:34;;;;;;;;;;;;;;;5.78;84.76;100427.28;2105121;28;19933;-65
2022/02/15 02:45:38;;;;;;;;;;;;;;;5.80;84.26;100438.81;2105477;28;20797;-65
2022/02/15 02:46:42;;;;;;;;;;;;;;;5.78;85.27;100430.84;2112832;28;19924;-68
2022/02/15 02:47:49;;;;;;;;;;;;;;;5.78;84.37;100432.59;2096779;28;19921;-65
2022/02/15 02:48:51;;;;;;;;;;;;;;;5.75;84.59;100430.88;2105354;28;19931;-65
2022/02/15 02:49:53;;;;;;;;;;;;;;;5.75;85.19;100430.88;2096831;28;19994;-65
2022/02/15 02:50:54;;;;;;;;;;;;;;;5.75;86.28;100430.88;2095872;28;45425;-65
2022/02/15 02:51:57;;;;;;;;;;;;;;;5.72;86.12;100428.25;2096457;28;19920;-63
2022/02/15 02:53:01;;;;;;;;;;;;;;;5.72;85.31;100437.13;2096715;28;20706;-65
2022/02/15 02:54:07;;;;;;;;;;;;;;;5.72;86.51;100431.81;2097525;28;19959;-65
2022/02/15 02:55:14;;;;;;;;;;;;;;;5.69;85.85;100442.47;2105845;28;19917;-66
2022/02/15 02:56:18;;;;;;;;;;;;;;;5.70;86.86;100436.22;2113325;28;19924;-65
2022/02/15 02:57:20;;;;;;;;;;;;;;;5.68;85.68;100440.69;2104910;28;20944;-66
2022/02/15 02:58:22;;;;;;;;;;;;;;;5.68;85.82;100432.72;2096245;28;20075;-65
2022/02/15 02:59:23;;;;;;;;;;;;;;;5.68;86.56;100443.34;2104486;28;44511;-65
2022/02/15 03:00:25;;;;;;;;;;;;;;;5.68;86.54;100448.66;2105079;28;19985;-66
2022/02/15 03:01:45;;;;;;;;;;;;;;;5.68;86.90;100445.13;2099332;28;19921;-65
2022/02/15 03:02:46;;;;;;;;;;;;;;;5.68;86.01;100445.13;2107807;28;20042;-65
2022/02/15 03:03:48;;;;;;;;;;;;;;;5.68;86.58;100453.09;2113263;28;20817;-65
2022/02/15 03:04:50;;;;;;;;;;;;;;;5.68;86.55;100453.97;2096107;28;20018;-65
2022/02/15 03:05:51;;;;;;;;;;;;;;;5.68;85.74;100453.09;2095573;28;41822;-65
2022/02/15 03:06:55;;;;;;;;;;;;;;;5.67;85.46;100452.22;2113396;28;19989;-66
2022/02/15 03:07:57;;;;;;;;;;;;;;;5.69;85.86;100462.84;2112481;28;44494;-65
2022/02/15 03:08:59;;;;;;;;;;;;;;;5.68;85.37;100461.94;2104600;28;19994;-65
2022/02/15 03:10:04;;;;;;;;;;;;;;;5.68;86.48;100459.28;2105184;28;19972;-65
2022/02/15 03:11:08;;;;;;;;;;;;;;;5.69;86.49;100463.69;2104568;28;19924;-65
2022/02/15 03:12:15;;;;;;;;;;;;;;;5.69;85.58;100463.69;2096212;28;19932;-65
2022/02/15 03:13:21;;;;;;;;;;;;;;;5.70;85.53;100464.56;2097231;28;19928;-65
2022/02/15 03:14:22;;;;;;;;;;;;;;;5.67;86.64;100465.50;2104871;28;34857;-65
2022/02/15 03:15:29;;;;;;;;;;;;;;;5.67;86.82;100465.50;2105360;28;19928;-65
2022/02/15 03:16:31;;;;;;;;;;;;;;;5.68;86.56;100466.38;2113316;28;20763;-65
2022/02/15 03:17:36;;;;;;;;;;;;;;;5.67;86.81;100465.50;2104246;28;20815;-65
2022/02/15 03:18:58;;;;;;;;;;;;;;;5.67;86.26;100467.25;2099537;28;19926;-65
2022/02/15 03:20:00;;;;;;;;;;;;;;;5.66;86.80;100468.16;2104449;28;19920;-65
2022/02/15 03:21:06;;;;;;;;;;;;;;;5.65;86.95;100467.28;2104758;28;20010;-65
2022/02/15 03:22:08;;;;;;;;;;;;;;;5.64;86.12;100465.53;2103769;28;43576;-66
2022/02/15 03:23:10;;;;;;;;;;;;;;;5.64;87.42;100465.53;2112197;28;19920;-65
2022/02/15 03:24:12;;;;;;;;;;;;;;;5.65;86.36;100462.00;2096528;28;19929;-65
2022/02/15 03:25:16;;;;;;;;;;;;;;;5.63;87.24;100469.06;2097437;28;19998;-65
2022/02/15 03:26:18;;;;;;;;;;;;;;;5.63;87.11;100474.38;2104827;28;20895;-65
2022/02/15 03:27:21;;;;;;;;;;;;;;;5.63;87.31;100473.50;2104942;28;20804;-65
2022/02/15 03:28:24;;;;;;;;;;;;;;;5.62;86.86;100480.59;2104403;28;19916;-65
2022/02/15 03:29:27;;;;;;;;;;;;;;;5.62;87.52;100467.31;2105511;28;20878;-65
2022/02/15 03:30:29;;;;;;;;;;;;;;;5.62;88.02;100477.94;2104747;28;20013;-65
2022/02/15 03:31:31;;;;;;;;;;;;;;;5.62;87.96;100479.72;2104998;28;20054;-65
2022/02/15 03:32:33;;;;;;;;;;;;;;;5.60;87.82;100477.09;2104900;28;19932;-65
2022/02/15 03:33:37;;;;;;;;;;;;;;;5.60;87.29;100478.84;2105035;28;19932;-65
2022/02/15 03:34:39;;;;;;;;;;;;;;;5.61;88.12;100484.13;2104719;28;19990;-65
2022/02/15 03:35:41;;;;;;;;;;;;;;;5.61;87.12;100493.88;2104819;28;21031;-65
2022/02/15 03:36:44;;;;;;;;;;;;;;;5.59;88.24;100493.91;2110644;28;19975;-65
2022/02/15 03:37:46;;;;;;;;;;;;;;;5.59;87.32;100493.91;2112760;28;23519;-65
2022/02/15 03:38:52;;;;;;;;;;;;;;;5.58;88.51;100494.81;2096344;28;19928;-65
2022/02/15 03:39:54;;;;;;;;;;;;;;;5.58;87.26;100497.47;2097202;28;20825;-65
2022/02/15 03:43:48;;;;;;;;;;;;;;;5.56;88.14;100504.53;2105212;28;19925;-66
2022/02/15 03:44:54;;;;;;;;;;;;;;;5.55;88.59;100508.97;2096175;28;20031;-66
2022/02/15 03:46:17;;;;;;;;;;;;;;;5.56;87.59;100509.84;2092638;28;20874;-66
2022/02/15 03:47:19;;;;;;;;;;;;;;;5.56;87.95;100507.19;2104597;28;20106;-66
2022/02/15 03:48:20;;;;;;;;;;;;;;;5.56;88.35;100512.50;2105028;28;22597;-66
2022/02/15 03:49:22;;;;;;;;;;;;;;;5.56;88.09;100512.50;2104508;28;19993;-66
2022/02/15 03:50:28;;;;;;;;;;;;;;;5.53;89.03;100507.25;2105791;28;20034;-66
2022/02/15 03:51:30;;;;;;;;;;;;;;;5.53;88.74;100507.25;2112131;28;19928;-66
2022/02/15 03:52:32;;;;;;;;;;;;;;;5.53;89.33;100526.72;2095696;28;41013;-66
2022/02/15 03:53:34;;;;;;;;;;;;;;;5.52;88.33;100521.41;2105134;28;20878;-66
2022/02/15 03:54:38;;;;;;;;;;;;;;;5.50;89.39;100526.72;2113307;28;19928;-66
2022/02/15 03:55:40;;;;;;;;;;;;;;;5.50;89.98;100523.19;2104826;28;19928;-67
2022/02/15 03:56:41;;;;;;;;;;;;;;;5.49;88.88;100522.31;2094750;28;41338;-68
2022/02/15 03:57:43;;;;;;;;;;;;;;;5.49;89.40;100529.38;2096502;28;19929;-67
2022/02/15 03:58:46;;;;;;;;;;;;;;;5.49;89.19;100529.38;2104809;28;19981;-67
2022/02/15 03:59:51;;;;;;;;;;;;;;;5.47;89.71;100526.78;2104202;28;19927;-68
2022/02/15 04:01:00;;;;;;;;;;;;;;;5.47;88.88;100526.78;2106294;28;20010;-67
2022/02/15 04:02:04;;;;;;;;;;;;;;;5.48;90.13;100538.25;2103804;28;19936;-67
2022/02/15 04:03:06;;;;;;;;;;;;;;;5.48;89.06;100536.47;2104786;28;19932;-67
2022/02/15 04:04:08;;;;;;;;;;;;;;;5.49;88.85;100542.66;2096105;28;19932;-67
2022/02/15 04:05:12;;;;;;;;;;;;;;;5.47;89.07;100534.75;2096253;28;19932;-68
2022/02/15 04:06:14;;;;;;;;;;;;;;;5.48;90.36;100540.91;2096651;28;20002;-67
2022/02/15 04:07:17;;;;;;;;;;;;;;;5.49;90.12;100550.63;2101349;28;19928;-67
2022/02/15 04:08:21;;;;;;;;;;;;;;;5.48;89.11;100547.09;2113417;28;20095;-67
2022/02/15 04:09:23;;;;;;;;;;;;;;;5.46;89.68;100542.72;2104743;28;20863;-67
2022/02/15 04:10:28;;;;;;;;;;;;;;;5.46;90.30;100545.38;2096304;28;19925;-67
2022/02/15 04:11:30;;;;;;;;;;;;;;;5.45;89.59;100543.59;2105299;28;19921;-67
2022/02/15 04:12:34;;;;;;;;;;;;;;;5.46;90.17;100548.03;2111897;28;19921;-67
2022/02/15 04:13:36;;;;;;;;;;;;;;;5.45;90.00;100551.56;2104043;28;20737;-67
2022/02/15 04:14:39;;;;;;;;;;;;;;;5.46;89.45;100556.00;2096730;28;19935;-67
2022/02/15 04:15:42;;;;;;;;;;;;;;;5.44;89.16;100553.34;2096433;28;19980;-68
2022/02/15 04:16:45;;;;;;;;;;;;;;;5.46;89.49;100545.38;2105098;28;19920;-67
2022/02/15 04:17:47;;;;;;;;;;;;;;;5.44;89.11;100548.03;2103874;28;28986;-68
2022/02/15 04:18:48;;;;;;;;;;;;;;;5.44;90.10;100552.47;2104675;28;33522;-67
2022/02/15 04:19:50;;;;;;;;;;;;;;;5.44;89.40;100555.13;2112524;28;33545;-67
2022/02/15 04:20:52;;;;;;;;;;;;;;;5.45;89.02;100559.53;2106091;28;19993;-67
2022/02/15 04:21:54;;;;;;;;;;;;;;;5.44;89.65;100558.66;2097565;28;19979;-67
2022/02/15 04:22:56;;;;;;;;;;;;;;;5.46;90.30;100556.00;2105299;28;20524;-67
2022/02/15 04:23:58;;;;;;;;;;;;;;;5.46;89.31;100561.31;2114532;28;19931;-67
2022/02/15 04:25:03;;;;;;;;;;;;;;;5.46;89.02;100566.59;2107057;28;20059;-67
2022/02/15 04:26:05;;;;;;;;;;;;;;;5.46;90.07;100563.97;2105889;28;20061;-67
2022/02/15 04:27:12;;;;;;;;;;;;;;;5.45;89.57;100563.06;2106440;28;20003;-67
2022/02/15 04:28:13;;;;;;;;;;;;;;;5.46;90.03;100561.31;2104844;28;20019;-67
2022/02/15 04:29:17;;;;;;;;;;;;;;;5.48;90.17;100570.13;2089473;28;19979;-67
2022/02/15 04:30:30;;;;;;;;;;;;;;;5.47;89.62;100566.59;2093187;28;19925;-67
2022/02/15 04:31:33;;;;;;;;;;;;;;;5.48;89.63;100571.00;2097936;28;20798;-67
2022/02/15 04:32:34;;;;;;;;;;;;;;;5.48;89.51;100562.16;2105685;28;19986;-67
2022/02/15 04:33:39;;;;;;;;;;;;;;;5.48;89.46;100562.16;2113850;28;19978;-67
2022/02/15 04:34:42;;;;;;;;;;;;;;;5.48;88.47;100560.38;2105460;28;19924;-67
2022/02/15 04:35:43;;;;;;;;;;;;;;;5.49;88.48;100571.88;2105413;28;39474;-67
2022/02/15 04:36:46;;;;;;;;;;;;;;;5.48;88.59;100567.47;2097348;28;19936;-67
2022/02/15 04:37:51;;;;;;;;;;;;;;;5.48;89.62;100564.81;2106226;28;19982;-67
2022/02/15 04:38:53;;;;;;;;;;;;;;;5.47;89.13;100579.88;2114220;28;19981;-67
2022/02/15 04:39:58;;;;;;;;;;;;;;;5.47;89.06;100576.31;2105501;28;19925;-67
2022/02/15 04:41:00;;;;;;;;;;;;;;;5.46;88.99;100570.13;2097486;28;19952;-67
2022/02/15 04:42:03;;;;;;;;;;;;;;;5.47;88.47;100579.88;2106166;28;19932;-67
2022/02/15 04:43:05;;;;;;;;;;;;;;;5.48;88.88;100580.75;2105487;28;19928;-67
2022/02/15 04:44:09;;;;;;;;;;;;;;;5.47;89.08;100579.88;2106201;28;19924;-67
2022/02/15 04:45:12;;;;;;;;;;;;;;;5.48;88.72;100580.75;2105416;28;19924;-67
2022/02/15 04:46:18;;;;;;;;;;;;;;;5.48;88.64;100586.06;2090291;28;20845;-67
2022/02/15 04:47:20;;;;;;;;;;;;;;;5.48;89.76;100580.75;2097383;28;19932;-67
2022/02/15 04:48:23;;;;;;;;;;;;;;;5.48;88.68;100581.63;2104647;28;45399;-67
2022/02/15 04:49:25;;;;;;;;;;;;;;;5.48;89.42;100580.75;2096994;28;38523;-67
2022/02/15 04:50:27;;;;;;;;;;;;;;;5.49;90.01;100590.47;2097455;28;19929;-67
2022/02/15 04:51:29;;;;;;;;;;;;;;;5.48;90.12;100588.72;2089025;28;20067;-67
2022/02/15 04:52:30;;;;;;;;;;;;;;;5.48;90.14;100588.72;2096635;28;43279;-67
2022/02/15 04:53:34;;;;;;;;;;;;;;;5.47;89.88;100590.50;2099665;28;20720;-67
2022/02/15 04:54:36;;;;;;;;;;;;;;;5.46;90.28;100594.03;2097571;28;22126;-67
2022/02/15 04:55:37;;;;;;;;;;;;;;;5.46;90.57;100587.84;2105257;28;27953;-67
2022/02/15 04:56:39;;;;;;;;;;;;;;;5.46;90.44;100587.84;2106142;28;20554;-67
2022/02/15 04:57:41;;;;;;;;;;;;;;;5.47;90.32;100600.22;2105783;28;20452;-67
2022/02/15 04:58:46;;;;;;;;;;;;;;;5.46;89.65;100588.72;2114389;28;20756;-67
2022/02/15 04:59:48;;;;;;;;;;;;;;;5.48;89.12;100599.34;2104943;28;19924;-67
2022/02/15 05:00:57;;;;;;;;;;;;;;;5.47;89.32;100601.13;2105998;28;20781;-67
2022/02/15 05:02:18;;;;;;;;;;;;;;;5.47;89.58;100597.56;2103198;28;19928;-67
2022/02/15 05:03:19;;;;;;;;;;;;;;;5.47;90.06;100589.59;2098501;28;19927;-67
2022/02/15 05:05:57;;;;;;;;;;;;;;;5.46;90.22;100593.16;2102812;28;20006;-67
2022/02/15 05:07:01;;;;;;;;;;;;;;;5.46;90.02;100598.47;2098548;28;19913;-68
2022/02/15 05:08:05;;;;;;;;;;;;;;;5.46;90.28;100603.78;2089095;28;19932;-67
2022/02/15 05:09:07;;;;;;;;;;;;;;;5.46;90.32;100598.47;2080203;28;42136;-67
2022/02/15 05:10:15;;;;;;;;;;;;;;;5.45;90.24;100612.63;2097265;28;19925;-67
2022/02/15 05:11:20;;;;;;;;;;;;;;;5.44;89.55;100600.25;2114440;28;19920;-68
2022/02/15 05:12:31;;;;;;;;;;;;;;;5.43;90.41;100593.16;2113843;28;19923;-67
2022/02/15 05:13:33;;;;;;;;;;;;;;;5.43;89.47;100601.13;2105284;28;19963;-67
2022/02/15 05:14:46;;;;;;;;;;;;;;;5.42;89.54;100605.56;2107189;28;20074;-67
2022/02/15 05:15:57;;;;;;;;;;;;;;;5.41;90.31;100601.16;2105670;28;20760;-67
2022/02/15 05:17:05;;;;;;;;;;;;;;;5.43;90.56;100619.72;2098240;28;20066;-67
2022/02/15 05:18:07;;;;;;;;;;;;;;;5.43;90.30;100606.44;2096894;28;19917;-67
2022/02/15 05:19:13;;;;;;;;;;;;;;;5.42;90.22;100612.63;2097779;28;20875;-68
2022/02/15 05:20:16;;;;;;;;;;;;;;;5.43;89.42;100620.59;2113682;22;19925;-66
2022/02/15 05:21:19;;;;;;;;;;;;;;;5.42;90.30;100621.50;2099233;28;19921;-68
2022/02/15 05:22:26;;;;;;;;;;;;;;;5.42;89.96;100624.16;2097899;28;20797;-68
2022/02/15 05:23:31;;;;;;;;;;;;;;;5.42;89.69;100617.94;2106363;27;20084;-68
2022/02/15 05:24:33;;;;;;;;;;;;;;;5.41;90.94;100616.19;2109818;27;19924;-68
2022/02/15 05:25:38;;;;;;;;;;;;;;;5.41;91.33;100625.03;2112885;28;19935;-68
2022/02/15 05:26:42;;;;;;;;;;;;;;;5.42;91.43;100636.53;2105211;28;19916;-68
2022/02/15 05:27:44;;;;;;;;;;;;;;;5.39;91.17;100623.31;2111231;28;19928;-69
2022/02/15 05:28:52;;;;;;;;;;;;;;;5.37;90.89;100636.59;2102692;28;19990;-68
2022/02/15 05:29:54;;;;;;;;;;;;;;;5.37;91.64;100635.72;2103589;28;20062;-68
2022/02/15 05:31:05;;;;;;;;;;;;;;;5.35;92.17;100636.59;2104484;28;19959;-68
2022/02/15 05:32:14;;;;;;;;;;;;;;;5.35;91.18;100633.94;2105482;28;19920;-68
2022/02/15 05:33:17;;;;;;;;;;;;;;;5.34;92.25;100636.59;2104914;28;19920;-69
2022/02/15 05:34:21;;;;;;;;;;;;;;;5.32;91.70;100628.63;2105698;28;19928;-69
2022/02/15 05:35:23;;;;;;;;;;;;;;;5.32;91.73;100638.38;2105522;28;19925;-69
2022/02/15 05:36:25;;;;;;;;;;;;;;;5.31;92.81;100636.59;2112665;28;47092;-68